createdAt,value
2023-04-03T00:00:40.876Z,99034.88
2023-04-03T00:01:43.614Z,99034.73
2023-04-03T00:02:46.464Z,99031.05
2023-04-03T00:03:49.599Z,99040.94
2023-04-03T00:04:52.119Z,99034.43
2023-04-03T00:05:55.941Z,99029.20
2023-04-03T00:06:58.433Z,99025.53
2023-04-03T00:08:03.505Z,99037.12
2023-04-03T00:09:08.702Z,99030.91
2023-04-03T00:10:13.975Z,99032.61
2023-04-03T00:11:17.343Z,99031.59
2023-04-03T00:12:19.939Z,99034.43
2023-04-03T00:13:23.239Z,99031.74
2023-04-03T00:14:26.950Z,99028.08
2023-04-03T00:15:29.775Z,99032.47
2023-04-03T00:16:33.453Z,99026.07
2023-04-03T00:17:36.191Z,99033.16
2023-04-03T00:18:38.957Z,99031.30
2023-04-03T00:19:41.723Z,99032.17
2023-04-03T00:20:45.171Z,99037.40
2023-04-03T00:21:47.881Z,99036.56
2023-04-03T00:22:50.899Z,99029.19
2023-04-03T00:23:53.370Z,99031.03
2023-04-03T00:24:57.049Z,99037.25
2023-04-03T00:25:59.600Z,99031.88
2023-04-03T00:27:03.891Z,99032.70
2023-04-03T00:28:07.840Z,99032.70
2023-04-03T00:29:10.752Z,99039.79
2023-04-03T00:30:15.891Z,99034.41
2023-04-03T00:31:18.446Z,99034.41
2023-04-03T00:32:21.170Z,99027.33
2023-04-03T00:33:24.924Z,99029.19
2023-04-03T00:34:29.393Z,99030.89
2023-04-03T00:35:32.459Z,99032.70
2023-04-03T00:36:35.405Z,99025.36
2023-04-03T00:37:38.682Z,99032.59
2023-04-03T00:38:42.344Z,99032.59
2023-04-03T00:39:45.806Z,99034.41
2023-04-03T00:40:49.052Z,99030.73
2023-04-03T00:41:53.462Z,99033.58
2023-04-03T00:42:59.275Z,99033.58
2023-04-03T00:44:23.577Z,99028.20
2023-04-03T00:45:37.839Z,99026.50
2023-04-03T00:46:40.880Z,99025.66
2023-04-03T00:47:45.366Z,99030.17
2023-04-03T00:48:49.517Z,99031.19
2023-04-03T00:49:53.338Z,99022.25
2023-04-03T00:50:56.256Z,99024.10
2023-04-03T00:51:59.509Z,99023.12
2023-04-03T00:53:03.187Z,99027.63
2023-04-03T00:54:06.134Z,99019.41
2023-04-03T00:55:10.367Z,99023.95
2023-04-03T00:56:15.030Z,99024.79
2023-04-03T00:57:18.046Z,99024.79
2023-04-03T00:58:21.490Z,99013.05
2023-04-03T00:59:30.531Z,99021.12
2023-04-03T01:00:34.949Z,99022.97
2023-04-03T01:01:38.919Z,99021.95
2023-04-03T01:02:43.706Z,99021.12
2023-04-03T01:03:47.097Z,99023.81
2023-04-03T01:04:50.723Z,99018.43
2023-04-03T01:05:53.841Z,99013.05
2023-04-03T01:06:58.386Z,99018.43
2023-04-03T01:08:01.247Z,99020.13
2023-04-03T01:09:04.804Z,99017.45
2023-04-03T01:10:10.763Z,99020.97
2023-04-03T01:11:13.327Z,99020.97
2023-04-03T01:12:24.541Z,99017.30
2023-04-03T01:14:43.193Z,99016.28
2023-04-03T01:15:46.505Z,99005.55
2023-04-03T01:16:55.140Z,99017.30
2023-04-03T01:17:58.414Z,99012.91
2023-04-03T01:19:01.478Z,99013.77
2023-04-03T01:20:30.995Z,99018.13
2023-04-03T01:21:56.453Z,99014.61
2023-04-03T01:23:09.030Z,99017.30
2023-04-03T01:24:27.880Z,99019.98
2023-04-03T01:25:30.825Z,99014.61
2023-04-03T01:26:34.500Z,99014.76
2023-04-03T01:27:39.339Z,99013.89
2023-04-03T01:28:42.145Z,99013.05
2023-04-03T01:29:46.411Z,99009.53
2023-04-03T01:31:10.872Z,99009.67
2023-04-03T01:32:15.210Z,99009.53
2023-04-03T01:33:19.519Z,99008.66
2023-04-03T01:34:23.345Z,99004.15
2023-04-03T01:35:26.101Z,99018.43
2023-04-03T01:36:30.460Z,99009.53
2023-04-03T01:37:33.171Z,99012.22
2023-04-03T01:38:36.078Z,99010.36
2023-04-03T01:39:41.570Z,99008.52
2023-04-03T01:40:44.609Z,99008.39
2023-04-03T01:41:48.581Z,99011.08
2023-04-03T01:42:53.685Z,99010.06
2023-04-03T01:43:56.788Z,99016.31
2023-04-03T01:45:01.537Z,99011.77
2023-04-03T01:46:05.455Z,99012.75
2023-04-03T01:47:10.521Z,99012.75
2023-04-03T01:48:14.350Z,99010.94
2023-04-03T01:49:16.962Z,99024.23
2023-04-03T01:50:20.810Z,99014.45
2023-04-03T01:51:23.853Z,99029.61
2023-04-03T01:52:27.619Z,99027.91
2023-04-03T01:53:30.138Z,99017.98
2023-04-03T01:54:33.617Z,99021.54
2023-04-03T01:55:37.296Z,99012.61
2023-04-03T01:56:40.295Z,99013.47
2023-04-03T01:57:43.886Z,99013.47
2023-04-03T01:58:47.205Z,99017.98
2023-04-03T01:59:50.289Z,99022.38
2023-04-03T02:00:55.077Z,99011.77
2023-04-03T02:01:57.817Z,99021.54
2023-04-03T02:03:01.873Z,99014.31
2023-04-03T02:04:06.055Z,99015.17
2023-04-03T02:05:09.761Z,99017.00
2023-04-03T02:06:13.023Z,99020.55
2023-04-03T02:07:15.751Z,99014.31
2023-04-03T02:08:19.772Z,99012.61
2023-04-03T02:09:24.860Z,99009.80
2023-04-03T02:10:30.470Z,99014.16
2023-04-03T02:11:33.400Z,99017.72
2023-04-03T02:12:38.214Z,99019.39
2023-04-03T02:13:43.235Z,99022.95
2023-04-03T02:14:46.206Z,99018.41
2023-04-03T02:15:48.898Z,99020.95
2023-04-03T02:16:53.203Z,99015.56
2023-04-03T02:17:57.646Z,99027.19
2023-04-03T02:19:00.888Z,99015.42
2023-04-03T02:20:05.527Z,99013.75
2023-04-03T02:21:09.208Z,99016.44
2023-04-03T02:22:13.293Z,99022.80
2023-04-03T02:23:17.737Z,99018.25
2023-04-03T02:24:21.419Z,99015.56
2023-04-03T02:25:24.324Z,99015.56
2023-04-03T02:26:28.684Z,99017.42
2023-04-03T02:27:32.250Z,99013.75
2023-04-03T02:28:35.956Z,99018.25
2023-04-03T02:29:38.814Z,99015.56
2023-04-03T02:30:42.051Z,99020.95
2023-04-03T02:31:47.486Z,99018.25
2023-04-03T02:32:51.732Z,99020.80
2023-04-03T02:33:55.732Z,99009.35
2023-04-03T02:34:58.901Z,99012.88
2023-04-03T02:36:02.057Z,99012.04
2023-04-03T02:37:05.695Z,99014.58
2023-04-03T02:38:09.447Z,99019.13
2023-04-03T02:39:13.305Z,99020.80
2023-04-03T02:40:16.688Z,99004.81
2023-04-03T02:41:19.490Z,99017.27
2023-04-03T02:42:25.100Z,99018.25
2023-04-03T02:43:28.048Z,99010.19
2023-04-03T02:44:31.356Z,99003.41
2023-04-03T02:45:35.661Z,99003.41
2023-04-03T02:46:39.036Z,99019.95
2023-04-03T02:47:41.655Z,99009.20
2023-04-03T02:48:46.158Z,99012.73
2023-04-03T02:49:49.054Z,99021.66
2023-04-03T02:50:51.972Z,99014.43
2023-04-03T02:52:07.234Z,99011.59
2023-04-03T02:53:09.911Z,99013.45
2023-04-03T02:54:14.842Z,99016.97
2023-04-03T02:55:19.206Z,99013.45
2023-04-03T02:56:23.860Z,99023.34
2023-04-03T02:57:26.697Z,99017.12
2023-04-03T02:58:30.511Z,99024.35
2023-04-03T02:59:34.904Z,99018.11
2023-04-03T03:00:37.750Z,99021.52
2023-04-03T03:01:40.519Z,99025.19
2023-04-03T03:02:43.586Z,99017.12
2023-04-03T03:03:47.858Z,99019.81
2023-04-03T03:04:51.783Z,99024.20
2023-04-03T03:06:05.187Z,99019.81
2023-04-03T03:07:08.837Z,99027.73
2023-04-03T03:08:11.387Z,99018.97
2023-04-03T03:09:14.570Z,99023.34
2023-04-03T03:10:19.364Z,99024.35
2023-04-03T03:11:24.617Z,99027.04
2023-04-03T03:12:28.567Z,99024.35
2023-04-03T03:13:32.725Z,99027.88
2023-04-03T03:14:37.713Z,99021.66
2023-04-03T03:15:40.658Z,99021.52
2023-04-03T03:16:43.138Z,99027.88
2023-04-03T03:17:47.258Z,99016.28
2023-04-03T03:18:51.588Z,99015.27
2023-04-03T03:19:54.208Z,99022.50
2023-04-03T03:20:57.737Z,99024.20
2023-04-03T03:22:01.098Z,99021.52
2023-04-03T03:23:03.700Z,99017.56
2023-04-03T03:24:06.835Z,99017.56
2023-04-03T03:25:10.914Z,99019.81
2023-04-03T03:26:13.575Z,99018.83
2023-04-03T03:27:19.283Z,99024.20
2023-04-03T03:28:23.401Z,99026.89
2023-04-03T03:29:27.352Z,99026.89
2023-04-03T03:30:30.760Z,99026.89
2023-04-03T03:31:33.560Z,99024.20
2023-04-03T03:32:37.785Z,99022.50
2023-04-03T03:33:41.759Z,99030.56
2023-04-03T03:34:45.315Z,99024.20
2023-04-03T03:35:48.659Z,99025.19
2023-04-03T03:36:52.451Z,99025.19
2023-04-03T03:37:55.781Z,99020.64
2023-04-03T03:39:01.143Z,99026.89
2023-04-03T03:40:05.621Z,99027.73
2023-04-03T03:41:10.178Z,99020.53
2023-04-03T03:42:13.909Z,99030.41
2023-04-03T03:43:18.540Z,99018.83
2023-04-03T03:44:23.033Z,99026.74
2023-04-03T03:45:25.954Z,99022.50
2023-04-03T03:46:28.587Z,99027.73
2023-04-03T03:47:31.434Z,99030.41
2023-04-03T03:48:34.725Z,99026.89
2023-04-03T03:49:37.472Z,99026.89
2023-04-03T03:50:41.020Z,99027.88
2023-04-03T03:51:44.363Z,99025.03
2023-04-03T03:52:48.650Z,99032.27
2023-04-03T03:53:52.969Z,99030.41
2023-04-03T03:54:56.319Z,99026.89
2023-04-03T03:55:59.491Z,99029.73
2023-04-03T03:57:03.106Z,99043.03
2023-04-03T03:58:06.676Z,99038.48
2023-04-03T03:59:13.335Z,99029.58
2023-04-03T04:00:16.911Z,99029.58
2023-04-03T04:01:22.672Z,99032.42
2023-04-03T04:02:26.887Z,99027.04
2023-04-03T04:03:30.146Z,99026.02
2023-04-03T04:04:33.137Z,99033.98
2023-04-03T04:05:37.680Z,99027.73
2023-04-03T04:06:41.621Z,99026.89
2023-04-03T04:07:45.720Z,99032.27
2023-04-03T04:08:49.998Z,99028.72
2023-04-03T04:09:52.623Z,99032.27
2023-04-03T04:10:55.428Z,99029.58
2023-04-03T04:11:58.883Z,99030.41
2023-04-03T04:13:01.632Z,99033.98
2023-04-03T04:14:04.295Z,99026.74
2023-04-03T04:15:08.645Z,99033.11
2023-04-03T04:16:11.329Z,99031.28
2023-04-03T04:17:15.319Z,99036.52
2023-04-03T04:18:21.054Z,99031.14
2023-04-03T04:19:24.662Z,99031.14
2023-04-03T04:20:27.263Z,99030.27
2023-04-03T04:21:29.926Z,99030.27
2023-04-03T04:22:33.194Z,99035.50
2023-04-03T04:23:37.110Z,99035.50
2023-04-03T04:24:41.607Z,99031.97
2023-04-03T04:25:48.657Z,99034.66
2023-04-03T04:26:51.757Z,99035.50
2023-04-03T04:27:54.597Z,99040.87
2023-04-03T04:28:58.654Z,99038.19
2023-04-03T04:30:02.464Z,99040.87
2023-04-03T04:31:05.277Z,99032.80
2023-04-03T04:32:10.337Z,99038.19
2023-04-03T04:33:14.597Z,99037.34
2023-04-03T04:34:18.107Z,99038.19
2023-04-03T04:35:22.491Z,99039.89
2023-04-03T04:36:27.219Z,99048.95
2023-04-03T04:37:30.980Z,99040.87
2023-04-03T04:38:37.494Z,99039.05
2023-04-03T04:39:42.972Z,99038.19
2023-04-03T04:40:47.960Z,99045.27
2023-04-03T04:41:52.496Z,99045.27
2023-04-03T04:42:55.830Z,99043.45
2023-04-03T04:43:59.303Z,99045.27
2023-04-03T04:45:03.304Z,99043.56
2023-04-03T04:46:10.762Z,99040.87
2023-04-03T04:47:15.337Z,99039.89
2023-04-03T04:48:19.119Z,99039.05
2023-04-03T04:49:23.311Z,99043.56
2023-04-03T04:50:26.241Z,99042.73
2023-04-03T04:51:35.073Z,99040.04
2023-04-03T04:52:34.301Z,99040.87
2023-04-03T04:53:40.829Z,99039.20
2023-04-03T04:54:45.145Z,99042.73
2023-04-03T04:55:48.323Z,99040.04
2023-04-03T04:56:53.492Z,99047.27
2023-04-03T04:57:57.077Z,99039.20
2023-04-03T04:59:00.915Z,99051.63
2023-04-03T05:00:05.072Z,99049.81
2023-04-03T05:01:09.247Z,99037.34
2023-04-03T05:02:13.752Z,99040.87
2023-04-03T05:03:17.431Z,99039.89
2023-04-03T05:04:21.382Z,99042.58
2023-04-03T05:05:26.195Z,99049.81
2023-04-03T05:06:30.687Z,99040.76
2023-04-03T05:07:33.769Z,99050.65
2023-04-03T05:08:38.013Z,99045.27
2023-04-03T05:09:42.674Z,99056.03
2023-04-03T05:10:46.271Z,99050.65
2023-04-03T05:11:50.836Z,99053.34
2023-04-03T05:12:55.340Z,99048.95
2023-04-03T05:13:57.820Z,99050.65
2023-04-03T05:15:00.722Z,99045.27
2023-04-03T05:16:05.135Z,99051.52
2023-04-03T05:17:08.446Z,99053.34
2023-04-03T05:18:13.362Z,99052.50
2023-04-03T05:19:17.092Z,99043.56
2023-04-03T05:20:19.986Z,99043.56
2023-04-03T05:21:25.607Z,99048.11
2023-04-03T05:22:28.696Z,99049.96
2023-04-03T05:23:34.888Z,99050.80
2023-04-03T05:24:38.159Z,99048.11
2023-04-03T05:25:41.973Z,99052.65
2023-04-03T05:26:45.646Z,99056.33
2023-04-03T05:27:49.377Z,99058.17
2023-04-03T05:28:52.553Z,99059.02
2023-04-03T05:29:57.048Z,99059.84
2023-04-03T05:30:59.701Z,99062.54
2023-04-03T05:32:05.350Z,99055.48
2023-04-03T05:33:08.740Z,99065.23
2023-04-03T05:34:14.534Z,99065.38
2023-04-03T05:35:19.064Z,99061.70
2023-04-03T05:36:24.159Z,99065.38
2023-04-03T05:37:29.960Z,99065.38
2023-04-03T05:38:33.485Z,99065.38
2023-04-03T05:39:38.741Z,99068.06
2023-04-03T05:40:43.565Z,99064.54
2023-04-03T05:41:46.681Z,99064.54
2023-04-03T05:42:50.064Z,99061.84
2023-04-03T05:43:53.563Z,99070.75
2023-04-03T05:44:56.956Z,99060.00
2023-04-03T05:46:00.971Z,99069.05
2023-04-03T05:47:04.170Z,99067.23
2023-04-03T05:48:07.396Z,99067.38
2023-04-03T05:49:10.896Z,99064.54
2023-04-03T05:50:13.720Z,99069.92
2023-04-03T05:52:33.950Z,99063.56
2023-04-03T05:53:39.875Z,99063.82
2023-04-03T05:54:43.544Z,99070.06
2023-04-03T05:55:48.119Z,99062.00
2023-04-03T05:56:51.366Z,99067.38
2023-04-03T05:57:55.706Z,99066.51
2023-04-03T05:58:59.533Z,99072.75
2023-04-03T06:00:07.048Z,99070.06
2023-04-03T06:01:13.046Z,99069.92
2023-04-03T06:02:18.617Z,99070.75
2023-04-03T06:03:22.229Z,99072.61
2023-04-03T06:04:25.391Z,99074.31
2023-04-03T06:05:28.859Z,99078.82
2023-04-03T06:08:02.531Z,99067.92
2023-04-03T06:09:08.617Z,99074.31
2023-04-03T06:10:14.745Z,99078.97
2023-04-03T06:11:18.552Z,99082.64
2023-04-03T06:12:22.504Z,99086.20
2023-04-03T06:13:30.054Z,99087.19
2023-04-03T06:14:32.545Z,99085.33
2023-04-03T06:15:35.887Z,99083.52
2023-04-03T06:16:39.862Z,99077.27
2023-04-03T06:17:46.372Z,99085.48
2023-04-03T06:18:49.906Z,99080.25
2023-04-03T06:19:53.719Z,99087.33
2023-04-03T06:20:58.887Z,99086.47
2023-04-03T06:22:03.352Z,99087.48
2023-04-03T06:23:08.738Z,99087.48
2023-04-03T06:24:15.597Z,99087.48
2023-04-03T06:25:19.327Z,99093.84
2023-04-03T06:26:22.743Z,99091.16
2023-04-03T06:27:25.773Z,99094.43
2023-04-03T06:28:29.145Z,99097.23
2023-04-03T06:29:32.086Z,99094.55
2023-04-03T06:30:35.695Z,99093.56
2023-04-03T06:31:39.266Z,99094.43
2023-04-03T06:32:42.149Z,99085.34
2023-04-03T06:33:45.288Z,99085.34
2023-04-03T06:34:48.268Z,99089.74
2023-04-03T06:35:53.766Z,99095.13
2023-04-03T06:36:56.211Z,99096.97
2023-04-03T06:37:58.972Z,99096.10
2023-04-03T06:39:02.158Z,99091.59
2023-04-03T06:40:05.852Z,99096.10
2023-04-03T06:41:08.996Z,99101.34
2023-04-03T06:42:11.577Z,99104.89
2023-04-03T06:43:15.826Z,99096.10
2023-04-03T06:44:18.989Z,99102.50
2023-04-03T06:45:22.092Z,99099.80
2023-04-03T06:46:26.126Z,99098.79
2023-04-03T06:47:28.918Z,99101.48
2023-04-03T06:48:32.399Z,99105.04
2023-04-03T06:49:36.952Z,99096.83
2023-04-03T06:50:40.083Z,99104.02
2023-04-03T06:51:43.768Z,99104.89
2023-04-03T06:52:47.545Z,99100.35
2023-04-03T06:53:52.043Z,99108.42
2023-04-03T06:54:57.762Z,99103.04
2023-04-03T06:56:00.236Z,99118.34
2023-04-03T06:57:04.293Z,99110.56
2023-04-03T06:58:07.558Z,99111.40
2023-04-03T06:59:10.453Z,99115.94
2023-04-03T07:00:16.725Z,99095.13
2023-04-03T07:02:34.568Z,99107.42
2023-04-03T07:03:38.829Z,99106.59
2023-04-03T07:04:41.868Z,99108.42
2023-04-03T07:05:45.282Z,99115.65
2023-04-03T07:06:49.304Z,99114.78
2023-04-03T07:07:52.384Z,99111.11
2023-04-03T07:08:57.752Z,99112.09
2023-04-03T07:10:01.630Z,99121.86
2023-04-03T07:11:05.081Z,99112.95
2023-04-03T07:12:07.643Z,99113.94
2023-04-03T07:13:09.870Z,99108.56
2023-04-03T07:14:12.918Z,99115.94
2023-04-03T07:15:17.355Z,99111.84
2023-04-03T07:16:20.169Z,99110.28
2023-04-03T07:17:22.753Z,99110.28
2023-04-03T07:18:26.187Z,99111.95
2023-04-03T07:19:31.526Z,99107.44
2023-04-03T07:20:35.161Z,99119.03
2023-04-03T07:21:37.777Z,99111.95
2023-04-03T07:22:41.106Z,99106.46
2023-04-03T07:23:44.974Z,99115.36
2023-04-03T07:24:49.989Z,99121.58
2023-04-03T07:25:52.908Z,99114.38
2023-04-03T07:26:58.096Z,99122.45
2023-04-03T07:28:01.027Z,99117.07
2023-04-03T07:29:04.405Z,99122.30
2023-04-03T07:30:08.850Z,99123.28
2023-04-03T07:31:14.781Z,99109.15
2023-04-03T07:32:18.199Z,99115.51
2023-04-03T07:33:22.491Z,99113.80
2023-04-03T07:34:25.878Z,99114.64
2023-04-03T07:35:28.676Z,99115.51
2023-04-03T07:36:33.571Z,99118.20
2023-04-03T07:37:36.455Z,99119.03
2023-04-03T07:38:39.085Z,99119.03
2023-04-03T07:39:46.587Z,99119.91
2023-04-03T07:40:51.206Z,99116.34
2023-04-03T07:41:56.701Z,99119.91
2023-04-03T07:43:01.073Z,99125.28
2023-04-03T07:44:05.137Z,99117.33
2023-04-03T07:45:10.336Z,99120.02
2023-04-03T07:46:13.328Z,99124.55
2023-04-03T07:47:18.579Z,99126.41
2023-04-03T07:48:23.409Z,99125.54
2023-04-03T07:49:27.622Z,99127.25
2023-04-03T07:50:32.407Z,99128.23
2023-04-03T07:51:35.094Z,99123.72
2023-04-03T07:52:37.813Z,99126.41
2023-04-03T07:53:41.029Z,99116.06
2023-04-03T07:54:45.419Z,99121.44
2023-04-03T07:55:48.780Z,99126.13
2023-04-03T07:56:51.527Z,99126.96
2023-04-03T07:57:56.563Z,99127.11
2023-04-03T07:59:00.148Z,99120.75
2023-04-03T08:00:05.157Z,99135.89
2023-04-03T08:01:09.993Z,99136.88
2023-04-03T08:02:13.235Z,99133.20
2023-04-03T08:03:18.214Z,99134.88
2023-04-03T08:04:22.130Z,99134.88
2023-04-03T08:05:25.858Z,99134.04
2023-04-03T08:06:45.998Z,99134.04
2023-04-03T08:07:39.251Z,99135.75
2023-04-03T08:08:42.089Z,99134.88
2023-04-03T08:09:51.781Z,99139.42
2023-04-03T08:10:55.788Z,99140.55
2023-04-03T08:11:59.084Z,99133.46
2023-04-03T08:13:02.351Z,99137.16
2023-04-03T08:14:05.947Z,99138.00
2023-04-03T08:15:11.398Z,99134.63
2023-04-03T08:16:20.415Z,99131.94
2023-04-03T08:17:22.957Z,99130.92
2023-04-03T08:18:27.266Z,99130.23
2023-04-03T08:19:30.936Z,99129.39
2023-04-03T08:20:35.111Z,99138.29
2023-04-03T08:21:38.151Z,99138.29
2023-04-03T08:22:42.761Z,99141.13
2023-04-03T08:23:58.615Z,99144.50
2023-04-03T08:25:02.385Z,99133.75
2023-04-03T08:26:14.873Z,99142.94
2023-04-03T08:27:20.816Z,99143.95
2023-04-03T08:28:23.918Z,99137.70
2023-04-03T08:29:29.630Z,99142.10
2023-04-03T08:30:33.402Z,99140.40
2023-04-03T08:31:39.470Z,99143.81
2023-04-03T08:32:44.822Z,99140.25
2023-04-03T08:33:48.190Z,99147.48
2023-04-03T08:34:54.618Z,99147.34
2023-04-03T08:35:59.147Z,99148.46
2023-04-03T08:37:02.272Z,99144.79
2023-04-03T08:38:06.555Z,99150.16
2023-04-03T08:39:11.575Z,99148.31
2023-04-03T08:40:16.417Z,99153.58
2023-04-03T08:41:37.160Z,99153.69
2023-04-03T08:42:44.490Z,99149.47
2023-04-03T08:44:22.932Z,99147.63
2023-04-03T08:45:41.353Z,99153.98
2023-04-03T08:46:47.890Z,99150.45
2023-04-03T08:47:58.164Z,99152.56
2023-04-03T08:49:00.842Z,99153.54
2023-04-03T08:50:16.882Z,99159.93
2023-04-03T08:51:20.897Z,99159.06
2023-04-03T08:52:42.728Z,99159.06
2023-04-03T08:53:49.232Z,99158.22
2023-04-03T08:54:55.623Z,99154.70
2023-04-03T08:55:59.507Z,99156.52
2023-04-03T08:57:05.271Z,99158.37
2023-04-03T08:58:21.438Z,99152.99
2023-04-03T08:59:30.275Z,99156.52
2023-04-03T09:00:56.276Z,99159.20
2023-04-03T09:02:00.212Z,99154.70
2023-04-03T09:03:03.787Z,99153.83
2023-04-03T09:05:44.483Z,99158.52
2023-04-03T09:06:56.560Z,99152.27
2023-04-03T09:08:22.475Z,99151.42
2023-04-03T09:09:35.120Z,99158.66
2023-04-03T09:10:38.202Z,99154.26
2023-04-03T09:11:47.590Z,99166.72
2023-04-03T09:14:18.561Z,99164.04
2023-04-03T09:15:35.511Z,99157.78
2023-04-03T09:16:49.393Z,99158.80
2023-04-03T09:18:01.598Z,99149.72
2023-04-03T09:19:21.073Z,99154.26
2023-04-03T09:20:52.221Z,99155.23
2023-04-03T09:21:57.356Z,99152.41
2023-04-03T09:23:00.811Z,99155.23
2023-04-03T09:24:04.430Z,99153.42
2023-04-03T09:25:19.936Z,99153.42
2023-04-03T09:26:28.957Z,99157.92
2023-04-03T09:27:31.493Z,99150.84
2023-04-03T09:28:42.942Z,99158.91
2023-04-03T09:29:46.971Z,99156.22
2023-04-03T09:30:49.630Z,99157.09
2023-04-03T09:32:02.950Z,99149.86
2023-04-03T09:33:07.838Z,99149.86
2023-04-03T09:34:27.721Z,99153.42
2023-04-03T09:35:44.759Z,99151.57
2023-04-03T09:36:45.686Z,99156.11
2023-04-03T09:37:51.551Z,99161.48
2023-04-03T09:39:05.572Z,99156.95
2023-04-03T09:40:37.154Z,99155.09
2023-04-03T09:41:40.888Z,99151.57
2023-04-03T09:42:48.957Z,99160.47
2023-04-03T09:43:55.041Z,99159.63
2023-04-03T09:45:01.180Z,99155.23
2023-04-03T09:46:33.419Z,99163.30
2023-04-03T09:47:38.127Z,99157.92
2023-04-03T09:48:41.398Z,99162.46
2023-04-03T09:49:46.083Z,99157.09
2023-04-03T09:50:57.059Z,99163.44
2023-04-03T09:52:04.773Z,99167.84
2023-04-03T09:53:08.455Z,99169.66
2023-04-03T09:54:28.505Z,99161.59
2023-04-03T09:55:32.064Z,99161.59
2023-04-03T09:56:36.421Z,99170.52
2023-04-03T09:57:41.232Z,99165.98
2023-04-03T09:58:50.449Z,99163.30
2023-04-03T09:59:59.730Z,99174.05
2023-04-03T10:01:04.199Z,99165.98
2023-04-03T10:02:13.879Z,99171.36
2023-04-03T10:03:35.745Z,99175.90
2023-04-03T10:04:41.197Z,99173.21
2023-04-03T10:05:44.066Z,99178.58
2023-04-03T10:06:52.252Z,99174.05
2023-04-03T10:08:15.868Z,99177.61
2023-04-03T10:09:27.274Z,99174.05
2023-04-03T10:10:30.737Z,99184.80
2023-04-03T10:11:33.942Z,99174.05
2023-04-03T10:12:36.875Z,99183.09
2023-04-03T10:14:00.670Z,99183.09
2023-04-03T10:15:07.726Z,99182.98
2023-04-03T10:16:14.794Z,99184.80
2023-04-03T10:17:21.243Z,99184.80
2023-04-03T10:18:49.077Z,99186.50
2023-04-03T10:19:56.953Z,99187.48
2023-04-03T10:21:27.440Z,99181.27
2023-04-03T10:22:51.777Z,99183.95
2023-04-03T10:24:12.717Z,99183.95
2023-04-03T10:25:33.571Z,99182.25
2023-04-03T10:26:52.141Z,99190.31
2023-04-03T10:28:00.341Z,99181.55
2023-04-03T10:29:09.840Z,99189.73
2023-04-03T10:30:39.632Z,99196.80
2023-04-03T10:31:47.370Z,99182.67
2023-04-03T10:32:59.915Z,99195.10
2023-04-03T10:34:09.088Z,99196.95
2023-04-03T10:35:27.524Z,99197.78
2023-04-03T10:36:39.292Z,99188.05
2023-04-03T10:38:00.762Z,99194.27
2023-04-03T10:40:44.907Z,99191.45
2023-04-03T10:42:13.361Z,99197.78
2023-04-03T10:43:26.043Z,99200.62
2023-04-03T10:44:53.176Z,99205.84
2023-04-03T10:46:29.974Z,99202.32
2023-04-03T10:47:39.842Z,99200.47
2023-04-03T10:50:49.202Z,99208.59
2023-04-03T10:51:57.236Z,99204.17
2023-04-03T10:55:48.638Z,99209.70
2023-04-03T10:57:10.867Z,99209.66
2023-04-03T10:58:06.404Z,99216.73
2023-04-03T10:59:15.673Z,99212.23
2023-04-03T11:00:24.054Z,99213.80
2023-04-03T11:01:29.782Z,99213.66
2023-04-03T11:02:42.959Z,99211.81
2023-04-03T11:03:47.995Z,99207.27
2023-04-03T11:06:12.947Z,99206.17
2023-04-03T11:07:20.375Z,99219.45
2023-04-03T11:08:27.446Z,99215.08
2023-04-03T11:09:36.821Z,99217.63
2023-04-03T11:10:45.761Z,99215.64
2023-04-03T11:11:49.887Z,99217.48
2023-04-03T11:13:05.376Z,99213.82
2023-04-03T11:14:31.065Z,99214.66
2023-04-03T11:15:33.720Z,99215.50
2023-04-03T11:16:50.991Z,99220.88
2023-04-03T11:19:05.655Z,99212.83
2023-04-03T11:20:19.902Z,99221.74
2023-04-03T11:22:57.404Z,99215.26
2023-04-03T11:24:01.387Z,99221.59
2023-04-03T11:25:14.019Z,99224.14
2023-04-03T11:26:19.114Z,99220.62
2023-04-03T11:27:23.705Z,99219.61
2023-04-03T11:28:26.968Z,99224.84
2023-04-03T11:29:40.029Z,99224.73
2023-04-03T11:31:02.389Z,99215.66
2023-04-03T11:32:13.055Z,99215.66
2023-04-03T11:33:36.901Z,99213.84
2023-04-03T11:34:45.727Z,99213.84
2023-04-03T11:35:50.641Z,99217.50
2023-04-03T11:36:55.644Z,99225.56
2023-04-03T11:38:00.808Z,99214.96
2023-04-03T11:39:34.673Z,99219.47
2023-04-03T11:40:37.761Z,99223.02
2023-04-03T11:41:41.088Z,99229.38
2023-04-03T11:42:56.892Z,99222.16
2023-04-03T11:44:05.158Z,99212.41
2023-04-03T11:45:33.944Z,99225.85
2023-04-03T11:46:55.629Z,99225.85
2023-04-03T11:48:23.191Z,99223.30
2023-04-03T11:49:33.552Z,99228.68
2023-04-03T11:50:42.765Z,99225.13
2023-04-03T11:51:48.775Z,99221.45
2023-04-03T11:52:59.081Z,99223.30
2023-04-03T11:55:45.011Z,99220.49
2023-04-03T11:56:48.647Z,99223.16
2023-04-03T11:58:02.875Z,99226.83
2023-04-03T11:59:16.175Z,99228.54
2023-04-03T12:02:08.163Z,99221.19
2023-04-03T12:04:51.153Z,99223.87
2023-04-03T12:06:00.896Z,99223.86
2023-04-03T12:07:15.501Z,99229.38
2023-04-03T12:08:44.726Z,99224.00
2023-04-03T12:09:52.330Z,99232.91
2023-04-03T12:11:13.854Z,99233.77
2023-04-03T12:12:36.017Z,99235.59
2023-04-03T12:13:57.013Z,99232.91
2023-04-03T12:16:43.651Z,99235.61
2023-04-03T12:17:47.441Z,99243.80
2023-04-03T12:18:57.056Z,99243.94
2023-04-03T12:20:00.912Z,99240.41
2023-04-03T12:21:04.078Z,99232.63
2023-04-03T12:22:07.888Z,99232.63
2023-04-03T12:23:34.199Z,99243.80
2023-04-03T12:24:40.249Z,99243.80
2023-04-03T12:25:50.644Z,99249.03
2023-04-03T12:27:18.229Z,99256.25
2023-04-03T12:28:22.240Z,99249.03
2023-04-03T12:29:35.070Z,99250.88
2023-04-03T12:30:38.227Z,99250.88
2023-04-03T12:31:48.569Z,99251.86
2023-04-03T12:33:18.622Z,99252.88
2023-04-03T12:34:29.076Z,99254.55
2023-04-03T12:35:41.200Z,99260.80
2023-04-03T12:37:03.436Z,99265.16
2023-04-03T12:38:28.216Z,99267.84
2023-04-03T12:39:56.200Z,99266.16
2023-04-03T12:41:26.654Z,99267.98
2023-04-03T12:44:27.130Z,99278.77
2023-04-03T12:45:30.572Z,99268.13
2023-04-03T12:46:44.039Z,99270.95
2023-04-03T12:47:46.490Z,99279.99
2023-04-03T12:48:57.774Z,99275.49
2023-04-03T12:50:00.462Z,99277.31
2023-04-03T12:51:04.697Z,99274.48
2023-04-03T12:52:23.992Z,99273.64
2023-04-03T12:53:34.041Z,99287.92
2023-04-03T12:54:38.555Z,99282.55
2023-04-03T12:55:41.533Z,99278.04
2023-04-03T12:58:23.657Z,99286.83
2023-04-03T12:59:27.477Z,99299.40
2023-04-03T13:00:35.441Z,99302.22
2023-04-03T13:01:38.782Z,99292.45
2023-04-03T13:02:55.878Z,99303.20
2023-04-03T13:03:58.802Z,99298.67
2023-04-03T13:05:07.978Z,99287.81
2023-04-03T13:06:13.869Z,99287.81
2023-04-03T13:07:34.915Z,99297.55
2023-04-03T13:08:38.471Z,99300.23
2023-04-03T13:09:42.254Z,99286.80
2023-04-03T13:11:01.099Z,99293.05
2023-04-03T13:12:12.755Z,99296.57
2023-04-03T13:13:15.963Z,99300.23
2023-04-03T13:17:00.189Z,99306.51
2023-04-03T13:18:03.336Z,99311.12
2023-04-03T13:19:05.757Z,99334.48
2023-04-03T13:21:31.507Z,99314.58
2023-04-03T13:22:39.137Z,99321.88
2023-04-03T13:23:44.609Z,99314.69
2023-04-03T13:24:47.386Z,99336.19
2023-04-03T13:25:51.221Z,99327.11
2023-04-03T13:26:54.657Z,99327.11
2023-04-03T13:29:05.468Z,99318.07
2023-04-03T13:31:35.038Z,99327.01
2023-04-03T13:32:39.867Z,99325.30
2023-04-03T13:33:46.785Z,99321.73
2023-04-03T13:34:51.332Z,99325.30
2023-04-03T13:36:07.997Z,99338.73